ADDS METAR Data INFO
IDs: Format: Raw Decoded Include TAF

Data at: 0923 UTC 13 Dec 2017

KMMI 130915Z AUTO 00000KT 10SM CLR M07/M12 A3007 RMK
KMMI 130855Z AUTO 00000KT 10SM CLR M07/M12 A3008 RMK
KMMI 130835Z AUTO 00000KT 10SM CLR M07/M13 A3007 RMK
KMMI 130815Z AUTO 00000KT 10SM CLR M06/M13 A3008 RMK
KMMI 130755Z AUTO 00000KT 10SM CLR M06/M13 A3008 RMK
KMMI 130735Z AUTO 33005KT 10SM CLR M05/M13 A3008 RMK
KMMI 130715Z AUTO 00000KT 10SM CLR M07/M12 A3008 RMK
KMMI 130655Z AUTO 34003KT 10SM CLR M06/M13 A3008 RMK
KMMI 130635Z AUTO 00000KT 10SM CLR M04/M13 A3007 RMK
KMMI 130615Z AUTO 00000KT 10SM CLR M04/M13 A3007 RMK
KMMI 130555Z AUTO 00000KT 10SM CLR M05/M13 A3007 RMK
KMMI 130535Z AUTO 34003KT 10SM CLR M04/M13 A3007 RMK
KMMI 130515Z AUTO 35003KT 10SM CLR M04/M13 A3007 RMK
KMMI 130455Z AUTO VRB03KT 10SM CLR M03/M14 A3008 RMK
KMMI 130435Z AUTO 00000KT 10SM CLR M03/M13 A3008 RMK
KMMI 130415Z AUTO 34003KT 10SM CLR M03/M13 A3008 RMK
KMMI 130355Z AUTO 34004KT 10SM CLR M03/M12 A3008 RMK
KMMI 130335Z AUTO 34005KT 10SM CLR M03/M12 A3008 RMK
KMMI 130315Z AUTO 00000KT 10SM CLR M02/M13 A3007 RMK
KMMI 130255Z AUTO 32004KT 10SM CLR M02/M13 A3008 RMK
KMMI 130235Z AUTO 32005KT 10SM CLR M02/M12 A3008 RMK
KMMI 130215Z AUTO 31004KT 10SM CLR M01/M12 A3007 RMK
KMMI 130155Z AUTO 32004KT 10SM CLR M01/M12 A3006 RMK
KMMI 130135Z AUTO 30004KT 10SM CLR M01/M12 A3006 RMK
KMMI 130115Z AUTO 32005KT 10SM CLR 00/M12 A3006 RMK
KMMI 130055Z AUTO 31008KT 10SM CLR 00/M11 A3006 RMK
KMMI 130035Z AUTO 31004KT 10SM CLR 01/M09 A3004 RMK
KMMI 130015Z AUTO 28004KT 10SM CLR 01/M09 A3003 RMK
KMMI 122355Z AUTO 29006KT 10SM CLR 01/M09 A3002 RMK
KMMI 122335Z AUTO 28003KT 10SM CLR 01/M09 A3002 RMK
KMMI 122315Z AUTO 29004KT 10SM CLR 01/M09 A3001 RMK
KMMI 122255Z AUTO 28003KT 10SM CLR 02/M09 A3001 RMK
KMMI 122235Z AUTO 30009KT 10SM CLR 02/M09 A3000 RMK
KMMI 122215Z AUTO 30004KT 10SM CLR 02/M08 A3000 RMK
KMMI 122155Z AUTO 29004KT 10SM CLR 02/M08 A3000 RMK
KMMI 122135Z AUTO 32007KT 10SM FEW048 03/M08 A2999 RMK
KMMI 122115Z AUTO 31009KT 10SM BKN046 03/M07 A2999 RMK
KMMI 122055Z AUTO 31014KT 10SM OVC046 04/M07 A2999 RMK
KMMI 122035Z AUTO 27007KT 10SM SCT040 OVC048 03/M05 A2999 RMK
KMMI 122015Z AUTO 31011KT 10SM SCT043 OVC050 04/M05 A2998 RMK
KMMI 121955Z AUTO 33009KT 10SM BKN044 OVC049 03/M06 A2997 RMK
KMMI 121935Z AUTO 33012KT 10SM BKN043 03/M06 A2997 RMK
KMMI 121915Z AUTO 32011KT 10SM BKN045 04/M06 A2997 RMK
KMMI 121855Z AUTO 31010KT 10SM BKN041 BKN047 04/M05 A2997 RMK
KMMI 121835Z AUTO 32007KT 10SM BKN041 BKN048 04/M04 A2997 RMK
KMMI 121815Z AUTO 31007KT 10SM BKN042 OVC050 05/M04 A2997 RMK
KMMI 121755Z AUTO 33007KT 10SM BKN042 OVC050 04/M03 A2997 RMK
KMMI 121735Z AUTO 31008KT 10SM BKN042 OVC047 05/M03 A2998 RMK
KMMI 121715Z AUTO 32010KT 10SM FEW031 SCT040 OVC047 04/M03 A2999 RMK
KMMI 121655Z AUTO 35009KT 10SM BKN029 OVC035 03/M02 A3000 RMK
KMMI 121635Z AUTO 31009KT 10SM BKN027 OVC034 04/M01 A3000 RMK
KMMI 121615Z AUTO 29012KT 10SM BKN027 OVC034 04/M01 A3000 RMK
KMMI 121555Z AUTO 30009KT 10SM OVC034 05/M02 A2998 RMK
KMMI 121535Z AUTO 32010KT 10SM BKN034 OVC042 05/M02 A2997 RMK
KMMI 121515Z AUTO 30006KT 10SM OVC034 05/M01 A2997 RMK
KMMI 121435Z AUTO 30006KT 10SM OVC039 06/M01 A2995 RMK
KMMI 121415Z AUTO 29005KT 10SM OVC039 05/M02 A2994 RMK
KMMI 121355Z AUTO 28004KT 10SM OVC039 05/M02 A2993 RMK
KMMI 121335Z AUTO 31003KT 10SM OVC041 05/M01 A2993 RMK
KMMI 121315Z AUTO 32005KT 10SM OVC041 03/M01 A2992 RMK
KMMI 121255Z AUTO 00000KT 10SM BKN045 02/M01 A2992 RMK
KMMI 121235Z AUTO 30004KT 10SM BKN047 02/M01 A2991 RMK
KMMI 121215Z AUTO 00000KT 10SM SCT047 02/M02 A2990 RMK
KMMI 121155Z AUTO 00000KT 10SM CLR 03/M01 A2989 RMK
KMMI 121115Z AUTO 26003KT 10SM CLR 03/00 A2989 RMK
KMMI 121055Z AUTO 00000KT 10SM CLR 02/M01 A2988 RMK
KMMI 121035Z AUTO 00000KT 10SM CLR 02/M01 A2988 RMK
KMMI 121015Z AUTO 00000KT 10SM CLR 02/00 A2988 RMK
KMMI 120955Z AUTO 00000KT 10SM CLR 03/00 A2988 RMK
KMMI 120935Z AUTO 00000KT 10SM CLR 04/00 A2987 RMK
KMMI 120915Z AUTO 00000KT 10SM CLR 04/01 A2988 RMK
KMMI 120855Z AUTO 24003KT 10SM CLR 06/00 A2988 RMK
KMMI 120835Z AUTO 23004KT 10SM CLR 06/00 A2988 RMK
KMMI 120815Z AUTO 24004KT 10SM CLR 06/00 A2988 RMK
KMMI 120755Z AUTO 23004KT 10SM CLR 06/00 A2988 RMK
KMMI 120735Z AUTO 24004KT 10SM CLR 06/00 A2988 RMK
KMMI 120715Z AUTO 22003KT 10SM CLR 06/00 A2987 RMK
KMMI 120655Z AUTO 23005KT 10SM CLR 06/00 A2987 RMK
KMMI 120635Z AUTO 21005KT 10SM CLR 06/00 A2987 RMK
KMMI 120615Z AUTO 22004KT 10SM CLR 06/00 A2988 RMK
KMMI 120555Z AUTO 21004KT 10SM CLR 07/00 A2988 RMK
KMMI 120535Z AUTO 22006KT 10SM CLR 07/00 A2989 RMK
KMMI 120515Z AUTO 23006KT 10SM CLR 07/00 A2990 RMK
KMMI 120455Z AUTO 22006KT 10SM CLR 07/00 A2990 RMK
KMMI 120435Z AUTO 21004KT 10SM CLR 08/00 A2991 RMK
KMMI 120415Z AUTO 21005KT 10SM CLR 08/00 A2992 RMK
KMMI 120355Z AUTO 22005KT 10SM CLR 08/00 A2993 RMK
KMMI 120335Z AUTO 21004KT 10SM CLR 08/00 A2993 RMK
KMMI 120315Z AUTO 00000KT 10SM CLR 07/00 A2993 RMK
KMMI 120255Z AUTO 22004KT 10SM CLR 08/M01 A2993 RMK
KMMI 120235Z AUTO 22006KT 10SM CLR 08/00 A2993 RMK
KMMI 120215Z AUTO 22006KT 10SM CLR 08/M01 A2992 RMK
KMMI 120155Z AUTO 22006KT 10SM CLR 08/M01 A2992 RMK
KMMI 120135Z AUTO 19005KT 10SM CLR 07/M01 A2994 RMK
KMMI 120115Z AUTO 20004KT 10SM CLR 07/M01 A2995 RMK
KMMI 120055Z AUTO 22004KT 10SM CLR 07/M01 A2995 RMK
KMMI 120035Z AUTO 21004KT 10SM CLR 07/M01 A2995 RMK
KMMI 120015Z AUTO 21003KT 10SM CLR 07/M01 A2995 RMK
KMMI 112355Z AUTO 19004KT 10SM CLR 08/M01 A2995 RMK
KMMI 112335Z AUTO 21004KT 10SM CLR 08/M01 A2996 RMK
KMMI 112315Z AUTO 21005KT 10SM CLR 08/M01 A2996 RMK
KMMI 112255Z AUTO 00000KT 10SM CLR 08/M01 A2997 RMK
KMMI 112235Z AUTO 23006KT 10SM CLR 09/M01 A2997 RMK
KMMI 112215Z AUTO 21006KT 10SM CLR 11/M01 A2996 RMK
KMMI 112155Z AUTO 20004KT 10SM CLR 11/M01 A2997 RMK
KMMI 112135Z AUTO 21007KT 10SM CLR 12/M01 A2998 RMK